Time;durP1;ratioP1;P1;durP2;ratioP2;P2;SDS_P1;SDS_P2;PMS_P1;PMS_P2;Temp;Humidity;BMP_temperature;BMP_pressure;BME280_temperature;BME280_humidity;BME280_pressure;Samples;Min_cycle;Max_cycle;Signal;HPM_P1;HPM_P2
2022/08/11 00:00:16;;;;;;;7.30;4.20;;;;;;;;;;1696153;83;21123;-62
2022/08/11 00:02:44;;;;;;;5.90;4.85;;;;;;;;;;1703747;84;21064;-62
2022/08/11 00:05:11;;;;;;;6.17;4.67;;;;;;;;;;1702863;83;21544;-62
2022/08/11 00:07:43;;;;;;;5.95;4.08;;;;;;;;;;1702942;83;21005;-62
2022/08/11 00:10:14;;;;;;;7.17;4.45;;;;;;;;;;1653613;86;21059;-62
2022/08/11 00:12:41;;;;;;;4.90;4.22;;;;;;;;;;1734742;82;21623;-62
2022/08/11 00:15:08;;;;;;;5.75;5.03;;;;;;;;;;1730345;82;21042;-62
2022/08/11 00:17:34;;;;;;;5.60;4.78;;;;;;;;;;1712394;82;20977;-62
2022/08/11 00:20:02;;;;;;;6.30;4.80;;;;;;;;;;1719998;82;21541;-62
2022/08/11 00:22:28;;;;;;;5.35;4.03;;;;;;;;;;1730668;82;21501;-62
2022/08/11 00:24:54;;;;;;;5.12;4.08;;;;;;;;;;1727325;82;21096;-62
2022/08/11 00:27:23;;;;;;;5.97;4.33;;;;;;;;;;1698557;84;21053;-62
2022/08/11 00:29:52;;;;;;;5.20;4.42;;;;;;;;;;1703314;83;21025;-62
2022/08/11 00:32:19;;;;;;;5.80;4.22;;;;;;;;;;1701135;83;20997;-62
2022/08/11 00:34:45;;;;;;;5.20;3.55;;;;;;;;;;1687945;84;21091;-62
2022/08/11 00:37:13;;;;;;;4.72;4.22;;;;;;;;;;1732863;82;21049;-62
2022/08/11 00:39:43;;;;;;;4.95;4.37;;;;;;;;;;1738608;82;21029;-62
2022/08/11 00:42:10;;;;;;;5.45;4.10;;;;;;;;;;1723993;82;21033;-62
2022/08/11 00:44:38;;;;;;;4.70;3.77;;;;;;;;;;1709654;84;21010;-62
2022/08/11 00:47:09;;;;;;;4.75;4.25;;;;;;;;;;1728648;82;21045;-62
2022/08/11 00:49:43;;;;;;;5.15;3.83;;;;;;;;;;1703695;83;21085;-62
2022/08/11 00:52:14;;;;;;;4.60;4.10;;;;;;;;;;1686276;85;21050;-62
2022/08/11 00:54:48;;;;;;;5.05;4.55;;;;;;;;;;1687084;84;21076;-62
2022/08/11 00:57:22;;;;;;;5.15;3.72;;;;;;;;;;1689425;84;21563;-62
2022/08/11 00:59:57;;;;;;;5.65;4.28;;;;;;;;;;1688234;84;21088;-62
2022/08/11 01:05:16;;;;;;;5.47;4.10;;;;;;;;;;1700083;80;75013;-62
2022/08/11 01:07:51;;;;;;;4.75;3.95;;;;;;;;;;1718495;82;21106;-62
2022/08/11 01:10:28;;;;;;;5.37;4.08;;;;;;;;;;1716202;83;21056;-62
2022/08/11 01:13:13;;;;;;;5.60;3.95;;;;;;;;;;1716165;83;21013;-62
2022/08/11 01:15:54;;;;;;;5.35;4.20;;;;;;;;;;1714950;83;21051;-62
2022/08/11 01:18:31;;;;;;;4.83;4.15;;;;;;;;;;1716319;83;21059;-62
2022/08/11 01:20:59;;;;;;;5.67;4.30;;;;;;;;;;1711296;83;21071;-62
2022/08/11 01:23:44;;;;;;;4.92;4.00;;;;;;;;;;1715835;83;21118;-62
2022/08/11 01:26:21;;;;;;;5.12;4.28;;;;;;;;;;1715726;83;21032;-62
2022/08/11 01:28:49;;;;;;;5.78;4.55;;;;;;;;;;1714630;83;21107;-62
2022/08/11 01:31:34;;;;;;;5.47;4.40;;;;;;;;;;1714086;83;21576;-62
2022/08/11 01:34:02;;;;;;;6.95;4.30;;;;;;;;;;1716280;83;21089;-62
2022/08/11 01:36:33;;;;;;;6.17;4.25;;;;;;;;;;1715458;83;21063;-62
2022/08/11 01:39:10;;;;;;;6.30;3.90;;;;;;;;;;1714657;83;20993;-61
2022/08/11 01:44:58;;;;;;;4.80;4.30;;;;;;;;;;1688055;85;21056;-62
2022/08/11 01:47:49;;;;;;;7.10;4.58;;;;;;;;;;1711328;83;21064;-62
2022/08/11 01:50:35;;;;;;;5.40;4.90;;;;;;;;;;1716122;83;21063;-62
2022/08/11 01:53:06;;;;;;;5.03;4.17;;;;;;;;;;1699876;83;21078;-62
2022/08/11 01:55:34;;;;;;;4.97;4.05;;;;;;;;;;1711427;83;21087;-62
2022/08/11 01:58:11;;;;;;;5.10;4.60;;;;;;;;;;1715499;83;21527;-61
2022/08/11 02:00:41;;;;;;;5.67;4.15;;;;;;;;;;1715473;83;21080;-62
2022/08/11 02:03:15;;;;;;;6.50;4.42;;;;;;;;;;1706916;82;20988;-62
2022/08/11 02:05:49;;;;;;;5.80;4.53;;;;;;;;;;1711052;82;21071;-61
2022/08/11 02:08:20;;;;;;;6.28;4.20;;;;;;;;;;1711356;82;21524;-62
2022/08/11 02:13:35;;;;;;;7.70;4.87;;;;;;;;;;1709074;84;21093;-61
2022/08/11 02:16:18;;;;;;;5.30;4.50;;;;;;;;;;1708012;83;21022;-61
2022/08/11 02:24:31;;;;;;;4.65;3.65;;;;;;;;;;1708680;84;21041;-61
2022/08/11 02:27:05;;;;;;;4.75;4.12;;;;;;;;;;1707921;84;21537;-61
2022/08/11 02:29:32;;;;;;;4.67;4.15;;;;;;;;;;1707156;84;21046;-62
2022/08/11 02:34:59;;;;;;;7.08;4.72;;;;;;;;;;1727948;81;21060;-62
2022/08/11 02:37:34;;;;;;;6.80;4.40;;;;;;;;;;1728739;82;21088;-61
2022/08/11 02:40:04;;;;;;;4.97;4.20;;;;;;;;;;1728330;81;21064;-62
2022/08/11 02:42:32;;;;;;;5.40;4.60;;;;;;;;;;1728071;81;21036;-61
2022/08/11 02:45:03;;;;;;;5.55;4.78;;;;;;;;;;1722167;81;21085;-61
2022/08/11 02:49:52;;;;;;;9.50;4.62;;;;;;;;;;1742411;82;21618;-61
2022/08/11 02:50:16;;;;;;;5.65;4.75;;;;;;;;;;1703931;81;21084;-62
2022/08/11 02:52:44;;;;;;;6.00;5.40;;;;;;;;;;1741817;81;21018;-62
2022/08/11 02:55:18;;;;;;;6.25;4.28;;;;;;;;;;1700934;83;21017;-61
2022/08/11 02:57:55;;;;;;;5.95;4.25;;;;;;;;;;1699921;84;21286;-62
2022/08/11 03:00:22;;;;;;;5.30;3.85;;;;;;;;;;1706141;81;21057;-60
2022/08/11 03:02:50;;;;;;;5.20;4.70;;;;;;;;;;1696748;83;21533;-62
2022/08/11 03:05:19;;;;;;;6.25;4.72;;;;;;;;;;1727155;82;21104;-62
2022/08/11 03:07:51;;;;;;;6.10;4.53;;;;;;;;;;1704749;84;21241;-62
2022/08/11 03:23:01;;;;;;;7.37;4.67;;;;;;;;;;1802102;78;22946;-60
2022/08/11 03:25:39;;;;;;;5.92;4.72;;;;;;;;;;1783895;80;21550;-60
2022/08/11 03:28:23;;;;;;;6.75;4.80;;;;;;;;;;1775791;80;21001;-60
2022/08/11 03:30:51;;;;;;;6.17;4.65;;;;;;;;;;1751920;80;21075;-60
2022/08/11 03:36:09;;;;;;;6.95;5.37;;;;;;;;;;1783975;80;21542;-60
2022/08/11 03:38:46;;;;;;;5.83;4.90;;;;;;;;;;1795685;80;21030;-60
2022/08/11 03:44:12;;;;;;;5.80;5.20;;;;;;;;;;1761259;81;21563;-61
2022/08/11 03:46:44;;;;;;;6.87;4.90;;;;;;;;;;1752666;81;21044;-61
2022/08/11 03:49:28;;;;;;;6.05;5.05;;;;;;;;;;1752483;80;21111;-61
2022/08/11 03:51:56;;;;;;;5.83;4.70;;;;;;;;;;1758516;80;20993;-61
2022/08/11 03:54:27;;;;;;;6.10;5.20;;;;;;;;;;1760943;80;21012;-60
2022/08/11 03:56:59;;;;;;;5.45;4.72;;;;;;;;;;1781898;80;21016;-61
2022/08/11 03:59:44;;;;;;;5.92;5.15;;;;;;;;;;1769254;80;20992;-61
2022/08/11 04:02:12;;;;;;;6.45;5.08;;;;;;;;;;1774936;80;21536;-62
2022/08/11 04:04:57;;;;;;;5.53;4.92;;;;;;;;;;1761220;80;21052;-62
2022/08/11 04:07:27;;;;;;;5.75;4.70;;;;;;;;;;1773127;80;21009;-62
2022/08/11 04:10:05;;;;;;;6.03;5.40;;;;;;;;;;1764491;80;21068;-61
2022/08/11 04:12:42;;;;;;;6.55;5.05;;;;;;;;;;1761671;80;21625;-61
2022/08/11 04:18:18;;;;;;;7.55;5.50;;;;;;;;;;1730327;81;21064;-60
2022/08/11 04:21:04;;;;;;;6.80;5.35;;;;;;;;;;1729180;81;21120;-60
2022/08/11 04:23:49;;;;;;;7.28;5.78;;;;;;;;;;1736298;82;21527;-60
2022/08/11 04:26:34;;;;;;;6.75;5.17;;;;;;;;;;1732093;82;22126;-61
2022/08/11 04:29:19;;;;;;;6.35;5.28;;;;;;;;;;1734468;82;21084;-60
2022/08/11 04:32:02;;;;;;;5.60;4.97;;;;;;;;;;1720937;82;21084;-62
2022/08/11 04:34:43;;;;;;;5.85;5.22;;;;;;;;;;1744502;82;21017;-61
2022/08/11 04:37:33;;;;;;;6.95;5.25;;;;;;;;;;1733360;82;21494;-61
2022/08/11 04:40:01;;;;;;;5.85;4.70;;;;;;;;;;1723714;82;21055;-61
2022/08/11 04:45:24;;;;;;;5.60;4.65;;;;;;;;;;1738440;82;21085;-62
2022/08/11 05:01:55;;;;;;;8.43;7.50;;;;;;;;;;1711234;82;21080;-60
2022/08/11 05:07:38;;;;;;;5.78;5.17;;;;;;;;;;1694360;82;21085;-60
2022/08/11 05:10:16;;;;;;;6.20;5.08;;;;;;;;;;1728539;83;21065;-59
2022/08/11 05:12:44;;;;;;;6.20;5.50;;;;;;;;;;1715448;82;21233;-60
2022/08/11 05:34:53;;;;;;;6.15;5.37;;;;;;;;;;1711279;82;21019;-60
2022/08/11 05:37:21;;;;;;;6.33;5.47;;;;;;;;;;1640925;85;21645;-60
2022/08/11 05:56:28;;;;;;;9.00;5.87;;;;;;;;;;1732429;81;21053;-69
2022/08/11 05:58:55;;;;;;;6.65;4.83;;;;;;;;;;1739279;82;21104;-70
2022/08/11 06:01:29;;;;;;;13.20;6.65;;;;;;;;;;1726499;82;20990;-71
2022/08/11 06:04:15;;;;;;;9.08;6.40;;;;;;;;;;1706495;82;21077;-72
2022/08/11 06:06:55;;;;;;;11.28;6.05;;;;;;;;;;1734644;82;21212;-73
2022/08/11 06:09:26;;;;;;;8.70;6.45;;;;;;;;;;1736810;82;21560;-72
2022/08/11 06:11:52;;;;;;;6.85;5.95;;;;;;;;;;1727243;81;21061;-72
2022/08/11 06:14:18;;;;;;;6.10;5.50;;;;;;;;;;1713451;82;21038;-71
2022/08/11 06:16:46;;;;;;;6.92;5.15;;;;;;;;;;1719267;82;21025;-69
2022/08/11 06:19:13;;;;;;;6.83;4.62;;;;;;;;;;1718294;82;21076;-70
2022/08/11 06:21:41;;;;;;;6.55;5.60;;;;;;;;;;1714615;82;21045;-71
2022/08/11 06:24:10;;;;;;;6.67;5.58;;;;;;;;;;1715380;82;22137;-71
2022/08/11 06:26:37;;;;;;;7.42;5.37;;;;;;;;;;1718527;82;21076;-69
2022/08/11 06:29:03;;;;;;;6.15;4.97;;;;;;;;;;1725725;82;21513;-70
2022/08/11 06:31:30;;;;;;;7.75;5.80;;;;;;;;;;1725082;82;21049;-71
2022/08/11 06:34:07;;;;;;;8.70;6.30;;;;;;;;;;1710418;83;21089;-70
2022/08/11 06:36:39;;;;;;;5.50;4.85;;;;;;;;;;1730824;83;21029;-71
2022/08/11 06:39:10;;;;;;;7.22;5.45;;;;;;;;;;1742725;82;21765;-70
2022/08/11 06:41:41;;;;;;;7.87;6.17;;;;;;;;;;1735585;82;21594;-69
2022/08/11 06:44:15;;;;;;;6.80;5.60;;;;;;;;;;1709108;82;21059;-70
2022/08/11 06:46:42;;;;;;;6.97;6.10;;;;;;;;;;1730349;82;21096;-70
2022/08/11 06:52:07;;;;;;;6.50;5.83;;;;;;;;;;1727062;82;21038;-70
2022/08/11 06:54:35;;;;;;;7.28;5.42;;;;;;;;;;1733302;82;21108;-71
2022/08/11 07:02:32;;;;;;;9.50;5.87;;;;;;;;;;1693658;83;21063;-72
2022/08/11 07:05:07;;;;;;;7.17;6.25;;;;;;;;;;1715402;80;21023;-73
2022/08/11 07:16:02;;;;;;;9.73;6.70;;;;;;;;;;1714196;82;21028;-70
2022/08/11 07:29:31;;;;;;;9.80;6.30;;;;;;;;;;1717106;82;21015;-72
2022/08/11 07:32:02;;;;;;;10.98;5.50;;;;;;;;;;1714085;83;21493;-71
2022/08/11 07:34:33;;;;;;;7.65;6.05;;;;;;;;;;1717077;82;21075;-71
2022/08/11 07:37:02;;;;;;;6.95;5.47;;;;;;;;;;1716384;82;21016;-70
2022/08/11 07:39:32;;;;;;;8.63;6.12;;;;;;;;;;1736599;82;21080;-72
2022/08/11 07:41:59;;;;;;;7.67;5.83;;;;;;;;;;1733682;82;21046;-71
2022/08/11 07:44:27;;;;;;;7.80;5.95;;;;;;;;;;1720601;82;21004;-72
2022/08/11 07:52:32;;;;;;;6.30;4.85;;;;;;;;;;1730992;82;21100;-71
2022/08/11 07:55:04;;;;;;;7.03;5.33;;;;;;;;;;1726441;82;21057;-72
2022/08/11 08:19:28;;;;;;;6.20;5.60;;;;;;;;;;1687495;83;21089;-73
2022/08/11 08:21:54;;;;;;;7.45;4.70;;;;;;;;;;1728202;82;21735;-74
2022/08/11 08:24:20;;;;;;;9.78;4.78;;;;;;;;;;1728925;83;21597;-73
2022/08/11 08:26:59;;;;;;;10.58;5.62;;;;;;;;;;1714507;82;21609;-73
2022/08/11 08:32:11;;;;;;;7.12;5.80;;;;;;;;;;1719549;83;21532;-73
2022/08/11 08:34:38;;;;;;;6.20;5.53;;;;;;;;;;1700903;82;21109;-73
2022/08/11 08:37:05;;;;;;;6.37;4.53;;;;;;;;;;1711793;82;21117;-72
2022/08/11 08:39:33;;;;;;;9.18;5.17;;;;;;;;;;1708939;82;21741;-71
2022/08/11 08:42:00;;;;;;;6.42;5.12;;;;;;;;;;1711098;83;21043;-70
2022/08/11 08:44:26;;;;;;;5.65;4.50;;;;;;;;;;1729717;82;21088;-70
2022/08/11 08:46:56;;;;;;;5.72;4.78;;;;;;;;;;1721583;82;21053;-71
2022/08/11 08:49:24;;;;;;;5.80;4.22;;;;;;;;;;1727663;82;21062;-71
2022/08/11 08:51:51;;;;;;;5.65;4.30;;;;;;;;;;1723466;82;21052;-71
2022/08/11 08:54:18;;;;;;;4.90;4.45;;;;;;;;;;1718652;82;21001;-71
2022/08/11 08:56:45;;;;;;;4.80;3.87;;;;;;;;;;1703550;82;21110;-71
2022/08/11 08:59:11;;;;;;;4.65;3.90;;;;;;;;;;1711689;82;22304;-72
2022/08/11 09:01:48;;;;;;;4.58;4.17;;;;;;;;;;1713020;82;21035;-72
2022/08/11 09:04:14;;;;;;;3.90;3.50;;;;;;;;;;1725178;82;21099;-71
2022/08/11 09:06:44;;;;;;;3.90;3.47;;;;;;;;;;1729835;82;21621;-71
2022/08/11 09:09:13;;;;;;;4.30;3.90;;;;;;;;;;1727610;82;21070;-72
2022/08/11 09:11:49;;;;;;;4.97;4.20;;;;;;;;;;1721138;82;21610;-71
2022/08/11 09:14:19;;;;;;;4.10;3.70;;;;;;;;;;1723116;83;20992;-73
2022/08/11 09:16:46;;;;;;;4.22;3.30;;;;;;;;;;1719438;83;21040;-72
2022/08/11 09:19:16;;;;;;;5.60;3.83;;;;;;;;;;1730696;82;21086;-72
2022/08/11 09:21:43;;;;;;;4.37;3.80;;;;;;;;;;1728473;82;21101;-72
2022/08/11 09:27:05;;;;;;;4.92;4.05;;;;;;;;;;1729350;83;21069;-72
2022/08/11 09:29:29;;;;;;;5.00;4.17;;;;;;;;;;1728588;82;21533;-71
2022/08/11 09:31:56;;;;;;;4.97;4.47;;;;;;;;;;1749303;81;21099;-80
2022/08/11 09:34:23;;;;;;;5.95;4.20;;;;;;;;;;1729403;83;21112;-81
2022/08/11 09:42:20;;;;;;;5.47;4.47;;;;;;;;;;1751909;81;20987;-81
2022/08/11 09:44:49;;;;;;;5.22;4.67;;;;;;;;;;1740238;81;21035;-82
2022/08/11 09:47:17;;;;;;;5.33;4.33;;;;;;;;;;1735025;81;21623;-82
2022/08/11 09:49:43;;;;;;;8.10;4.80;;;;;;;;;;1750747;81;21257;-82
2022/08/11 09:52:10;;;;;;;5.67;4.45;;;;;;;;;;1745750;81;21024;-81
2022/08/11 09:54:35;;;;;;;5.87;4.20;;;;;;;;;;1730442;81;21005;-83
2022/08/11 09:59:46;;;;;;;6.60;5.10;;;;;;;;;;1724787;83;21013;-82
2022/08/11 10:02:12;;;;;;;6.20;5.10;;;;;;;;;;1730559;81;21073;-81
2022/08/11 10:04:41;;;;;;;5.40;4.90;;;;;;;;;;1740751;80;21722;-82
2022/08/11 10:07:09;;;;;;;5.87;4.60;;;;;;;;;;1729258;83;20989;-79
2022/08/11 10:09:43;;;;;;;5.42;4.60;;;;;;;;;;1730332;82;21091;-77
2022/08/11 10:12:11;;;;;;;6.00;5.35;;;;;;;;;;1749716;81;21549;-77
2022/08/11 10:17:26;;;;;;;6.55;5.30;;;;;;;;;;1742880;81;21134;-76
2022/08/11 10:19:52;;;;;;;5.95;5.35;;;;;;;;;;1740037;81;21043;-77
2022/08/11 10:27:57;;;;;;;6.67;5.67;;;;;;;;;;1743231;82;21062;-76
2022/08/11 10:35:48;;;;;;;5.83;5.20;;;;;;;;;;1730615;81;21113;-83
2022/08/11 10:38:14;;;;;;;7.12;5.50;;;;;;;;;;1730565;82;21601;-81
2022/08/11 10:40:40;;;;;;;6.05;5.40;;;;;;;;;;1730535;81;21062;-80
2022/08/11 10:43:12;;;;;;;5.80;4.80;;;;;;;;;;1711627;82;21041;-81
2022/08/11 10:48:22;;;;;;;6.20;5.60;;;;;;;;;;1720956;81;22283;-81
2022/08/11 10:59:07;;;;;;;6.78;5.62;;;;;;;;;;1724094;82;21072;-78
2022/08/11 11:01:33;;;;;;;6.25;5.65;;;;;;;;;;1728740;81;21065;-79
2022/08/11 11:04:00;;;;;;;5.92;5.33;;;;;;;;;;1731674;81;21551;-78
2022/08/11 11:06:28;;;;;;;7.72;5.58;;;;;;;;;;1744697;81;21068;-80
2022/08/11 11:09:07;;;;;;;6.45;5.85;;;;;;;;;;1732300;81;21080;-80
2022/08/11 11:19:51;;;;;;;6.58;5.50;;;;;;;;;;1700113;83;21095;-81
2022/08/11 11:25:04;;;;;;;7.35;5.42;;;;;;;;;;1718110;81;21072;-81
2022/08/11 11:27:39;;;;;;;6.75;6.15;;;;;;;;;;1735551;81;21021;-81
2022/08/11 11:30:07;;;;;;;8.28;6.03;;;;;;;;;;1729151;83;21025;-81
2022/08/11 11:32:35;;;;;;;6.50;5.90;;;;;;;;;;1729420;83;21528;-80
2022/08/11 11:35:18;;;;;;;6.80;5.78;;;;;;;;;;1730963;82;21045;-81
2022/08/11 11:37:45;;;;;;;6.75;5.40;;;;;;;;;;1735506;81;21072;-80
2022/08/11 11:40:15;;;;;;;7.08;6.17;;;;;;;;;;1723954;83;21009;-80
2022/08/11 11:42:44;;;;;;;7.35;6.50;;;;;;;;;;1729436;82;21076;-80
2022/08/11 11:45:11;;;;;;;6.70;6.03;;;;;;;;;;1739254;82;21044;-81
2022/08/11 11:47:37;;;;;;;6.92;5.87;;;;;;;;;;1725568;81;21181;-81
2022/08/11 11:50:05;;;;;;;9.90;6.22;;;;;;;;;;1737288;81;21539;-83
2022/08/11 11:52:31;;;;;;;11.48;7.10;;;;;;;;;;1743147;81;21019;-82
2022/08/11 11:54:57;;;;;;;13.55;7.75;;;;;;;;;;1716077;81;20968;-83
2022/08/11 12:02:58;;;;;;;11.05;6.47;;;;;;;;;;1702524;81;21100;-83
2022/08/11 12:05:25;;;;;;;6.95;6.25;;;;;;;;;;1720337;82;21287;-80
2022/08/11 12:08:14;;;;;;;6.72;5.40;;;;;;;;;;1725131;82;21545;-80
2022/08/11 12:10:38;;;;;;;6.33;5.72;;;;;;;;;;1726161;81;21087;-79
2022/08/11 12:15:49;;;;;;;6.50;5.80;;;;;;;;;;1726408;83;21074;-79
2022/08/11 12:18:15;;;;;;;8.13;5.90;;;;;;;;;;1725022;81;20986;-78
2022/08/11 12:20:43;;;;;;;7.58;6.70;;;;;;;;;;1726219;81;21127;-77
2022/08/11 12:28:38;;;;;;;6.08;5.47;;;;;;;;;;1715220;83;21069;-76
2022/08/11 12:31:05;;;;;;;6.97;5.80;;;;;;;;;;1716076;82;21064;-78
2022/08/11 12:33:31;;;;;;;6.90;6.10;;;;;;;;;;1717530;82;20969;-76
2022/08/11 12:35:58;;;;;;;6.87;6.28;;;;;;;;;;1713824;82;21005;-77
2022/08/11 12:38:23;;;;;;;7.78;5.92;;;;;;;;;;1714563;82;21578;-77
2022/08/11 12:46:21;;;;;;;7.20;6.50;;;;;;;;;;1709683;84;21105;-77
2022/08/11 12:54:24;;;;;;;7.15;5.85;;;;;;;;;;1711268;82;21037;-77
2022/08/11 13:05:07;;;;;;;7.15;6.40;;;;;;;;;;1719574;82;21060;-72
2022/08/11 13:07:33;;;;;;;8.10;7.22;;;;;;;;;;1725539;82;22034;-72
2022/08/11 13:10:00;;;;;;;7.62;6.65;;;;;;;;;;1710341;82;20957;-71
2022/08/11 13:15:13;;;;;;;9.35;6.30;;;;;;;;;;1718581;81;21095;-73
2022/08/11 13:17:39;;;;;;;7.78;5.80;;;;;;;;;;1712151;82;21017;-72
2022/08/11 13:20:06;;;;;;;7.60;6.65;;;;;;;;;;1721647;82;21606;-73
2022/08/11 13:22:32;;;;;;;7.50;6.40;;;;;;;;;;1715326;82;21005;-73
2022/08/11 13:24:58;;;;;;;7.62;6.87;;;;;;;;;;1728562;82;21044;-73
2022/08/11 13:27:25;;;;;;;7.22;6.53;;;;;;;;;;1727522;81;21001;-74
2022/08/11 13:31:09;;;;;;;8.20;6.35;;;;;;;;;;1728273;81;21077;-72
2022/08/11 13:32:19;;;;;;;7.33;6.62;;;;;;;;;;1724158;81;21032;-73
2022/08/11 13:34:47;;;;;;;7.35;6.58;;;;;;;;;;1734057;81;21017;-75
2022/08/11 13:37:13;;;;;;;7.70;6.67;;;;;;;;;;1732779;81;21495;-75
2022/08/11 13:39:46;;;;;;;7.55;6.75;;;;;;;;;;1741889;81;21091;-76
2022/08/11 13:42:09;;;;;;;7.80;6.80;;;;;;;;;;1736647;81;21020;-76
2022/08/11 13:44:37;;;;;;;8.48;6.15;;;;;;;;;;1731090;81;21141;-76
2022/08/11 13:47:03;;;;;;;7.47;6.78;;;;;;;;;;1727828;81;21032;-75
2022/08/11 13:49:31;;;;;;;22.13;8.23;;;;;;;;;;1726398;81;22311;-73
2022/08/11 13:51:57;;;;;;;27.90;24.98;;;;;;;;;;1730257;81;21036;-73
2022/08/11 13:54:27;;;;;;;26.23;22.73;;;;;;;;;;1718932;82;21128;-75
2022/08/11 13:56:55;;;;;;;10.72;9.63;;;;;;;;;;1724821;82;21032;-76
2022/08/11 13:59:21;;;;;;;11.05;7.03;;;;;;;;;;1728438;82;21004;-75
2022/08/11 14:01:49;;;;;;;10.68;7.40;;;;;;;;;;1724842;81;21627;-75
2022/08/11 14:04:20;;;;;;;8.85;6.80;;;;;;;;;;1731362;82;21052;-76
2022/08/11 14:06:48;;;;;;;10.38;6.95;;;;;;;;;;1720808;81;21132;-73
2022/08/11 14:09:15;;;;;;;9.00;7.35;;;;;;;;;;1727416;82;21572;-74
2022/08/11 14:14:29;;;;;;;8.35;7.35;;;;;;;;;;1721357;81;21059;-80
2022/08/11 14:16:55;;;;;;;9.00;7.67;;;;;;;;;;1721618;81;22532;-76
2022/08/11 14:19:23;;;;;;;16.05;9.20;;;;;;;;;;1722319;82;21663;-77
2022/08/11 14:22:07;;;;;;;9.78;7.80;;;;;;;;;;1724758;81;21076;-78
2022/08/11 14:24:40;;;;;;;8.98;7.83;;;;;;;;;;1717693;81;21080;-77
2022/08/11 14:27:06;;;;;;;9.35;7.53;;;;;;;;;;1718578;82;21281;-77
2022/08/11 14:29:37;;;;;;;9.18;8.05;;;;;;;;;;1717823;82;21029;-79
2022/08/11 14:32:01;;;;;;;8.50;7.70;;;;;;;;;;1715047;82;21060;-78
2022/08/11 14:34:28;;;;;;;8.48;7.55;;;;;;;;;;1729814;82;21068;-78
2022/08/11 14:36:56;;;;;;;9.45;7.80;;;;;;;;;;1718933;82;21028;-78
2022/08/11 14:39:25;;;;;;;9.45;7.95;;;;;;;;;;1714767;82;21611;-76
2022/08/11 14:47:23;;;;;;;9.00;7.70;;;;;;;;;;1714636;82;21047;-77
2022/08/11 14:49:50;;;;;;;8.03;7.22;;;;;;;;;;1721461;82;21028;-75
2022/08/11 14:52:19;;;;;;;9.68;7.60;;;;;;;;;;1727189;82;21036;-75
2022/08/11 14:57:31;;;;;;;9.05;8.15;;;;;;;;;;1721619;82;21112;-78
2022/08/11 14:59:59;;;;;;;8.33;7.53;;;;;;;;;;1722674;82;21135;-76
2022/08/11 15:05:09;;;;;;;10.65;8.55;;;;;;;;;;1716406;82;21067;-78
2022/08/11 15:07:35;;;;;;;9.25;7.65;;;;;;;;;;1718583;82;21037;-75
2022/08/11 15:10:03;;;;;;;9.80;7.60;;;;;;;;;;1720756;83;21002;-76
2022/08/11 15:12:31;;;;;;;14.65;8.20;;;;;;;;;;1717173;82;21072;-76
2022/08/11 15:17:42;;;;;;;13.93;8.60;;;;;;;;;;1702678;83;21047;-76
2022/08/11 15:25:29;;;;;;;14.23;8.48;;;;;;;;;;1698475;84;21108;-79
2022/08/11 15:37:34;;;;;;;8.45;7.33;;;;;;;;;;1756145;80;20127;-77
2022/08/11 15:45:50;;;;;;;10.80;8.65;;;;;;;;;;1730313;82;21500;-77
2022/08/11 15:48:30;;;;;;;8.38;7.58;;;;;;;;;;1744313;82;21022;-78
2022/08/11 15:50:57;;;;;;;9.90;8.90;;;;;;;;;;1739473;82;21044;-78
2022/08/11 15:53:28;;;;;;;9.23;7.80;;;;;;;;;;1734271;82;21504;-77
2022/08/11 15:55:54;;;;;;;8.15;7.35;;;;;;;;;;1740162;82;21084;-78
2022/08/11 16:06:21;;;;;;;10.80;7.55;;;;;;;;;;1752033;80;21029;-78
2022/08/11 16:08:48;;;;;;;9.68;7.50;;;;;;;;;;1751566;81;21025;-78
2022/08/11 16:11:13;;;;;;;12.07;8.58;;;;;;;;;;1729902;82;21092;-78
2022/08/11 16:16:13;;;;;;;9.70;8.73;;;;;;;;;;1743767;82;21033;-77
2022/08/11 16:18:45;;;;;;;12.03;8.75;;;;;;;;;;1735225;82;21397;-76
2022/08/11 16:21:16;;;;;;;10.10;7.83;;;;;;;;;;1741491;82;21044;-77
2022/08/11 16:23:43;;;;;;;9.18;7.85;;;;;;;;;;1747421;81;21523;-77
2022/08/11 16:26:09;;;;;;;9.30;8.40;;;;;;;;;;1729433;81;21030;-77
2022/08/11 16:28:35;;;;;;;9.38;8.45;;;;;;;;;;1741105;81;21041;-76
2022/08/11 16:31:01;;;;;;;7.97;7.28;;;;;;;;;;1731825;82;21009;-77
2022/08/11 16:33:28;;;;;;;8.65;7.75;;;;;;;;;;1723151;82;21001;-75
2022/08/11 16:38:38;;;;;;;9.23;8.40;;;;;;;;;;1736339;82;21100;-77
2022/08/11 16:41:05;;;;;;;8.88;8.08;;;;;;;;;;1720973;82;21037;-78
2022/08/11 16:49:03;;;;;;;10.00;8.78;;;;;;;;;;1656273;86;21068;-77
2022/08/11 16:51:29;;;;;;;9.25;7.65;;;;;;;;;;1652702;86;21083;-78
2022/08/11 16:53:55;;;;;;;8.30;7.47;;;;;;;;;;1659549;84;21026;-78
2022/08/11 16:56:23;;;;;;;8.98;8.13;;;;;;;;;;1676777;84;21025;-78
2022/08/11 16:59:13;;;;;;;9.70;8.70;;;;;;;;;;1723134;82;21091;-77
2022/08/11 17:01:40;;;;;;;10.93;8.50;;;;;;;;;;1729516;82;21021;-76
2022/08/11 17:16:05;;;;;;;8.93;8.13;;;;;;;;;;1711585;82;21036;-76
2022/08/11 17:17:35;;;;;;;10.80;7.22;;;;;;;;;;1730433;82;21096;-77
2022/08/11 17:20:06;;;;;;;8.23;7.20;;;;;;;;;;1719607;82;21092;-78
2022/08/11 17:25:16;;;;;;;8.85;7.95;;;;;;;;;;1722226;82;21365;-78
2022/08/11 17:27:42;;;;;;;8.10;7.25;;;;;;;;;;1720861;81;21057;-77
2022/08/11 17:30:08;;;;;;;10.32;8.58;;;;;;;;;;1724773;82;21001;-78
2022/08/11 17:35:32;;;;;;;7.50;6.80;;;;;;;;;;1733396;82;21038;-77
2022/08/11 17:38:02;;;;;;;8.90;7.83;;;;;;;;;;1738825;82;21049;-77
2022/08/11 17:40:29;;;;;;;8.35;7.55;;;;;;;;;;1719162;82;21061;-78
2022/08/11 17:48:26;;;;;;;52.45;43.10;;;;;;;;;;1733936;82;21049;-78
2022/08/11 17:50:52;;;;;;;12.55;11.18;;;;;;;;;;1718500;82;22243;-77
2022/08/11 18:01:34;;;;;;;9.03;7.62;;;;;;;;;;1719336;82;21043;-77
2022/08/11 18:04:01;;;;;;;8.90;8.08;;;;;;;;;;1717623;82;21323;-79
2022/08/11 18:06:28;;;;;;;9.05;8.10;;;;;;;;;;1725777;81;21517;-76
